CPX315 Details

Departure: Kansas City International Airport (KMCI)
Arrival: Los Angeles International Airport (KLAX)
Route: WL5 SLN KD45W ALS TBC JASSE Q90 DNERO ANJLL4
Notes: METROAIR CARGO SUPPORT


Current Weather Information
KMCI 190653Z 14006KT 10SM BKN110 05/M03 A3031 RMK AO2 SLP266 T00501033
KLAX 190653Z 11005KT 7SM FEW007 FEW018 14/12 A2999 RMK AO2 SLP152 T01390122